Time;durP1;ratioP1;P1;durP2;ratioP2;P2;SDS_P1;SDS_P2;PMS_P1;PMS_P2;Temp;Humidity;BMP_temperature;BMP_pressure;BME280_temperature;BME280_humidity;BME280_pressure;Samples;Min_cycle;Max_cycle;Signal;HPM_P1;HPM_P2
2022/11/02 00:00:27;;;;;;;10.13;2.83;;;;;;;11.54;100.00;101190.31;5082043;28;20128;-67
2022/11/02 00:02:53;;;;;;;10.13;2.28;;;;;;;11.59;100.00;101188.66;5075465;28;20029;-68
2022/11/02 00:05:23;;;;;;;7.18;1.70;;;;;;;11.60;100.00;101204.50;5079387;28;20089;-69
2022/11/02 00:07:50;;;;;;;14.98;2.22;;;;;;;11.62;100.00;101194.88;5075392;28;20020;-68
2022/11/02 00:10:17;;;;;;;7.50;1.85;;;;;;;11.63;100.00;101190.47;5089157;28;20085;-68
2022/11/02 00:12:43;;;;;;;9.77;2.10;;;;;;;11.66;100.00;101221.28;5079349;28;20364;-68
2022/11/02 00:15:09;;;;;;;8.00;1.88;;;;;;;11.71;100.00;101238.97;5074199;28;20031;-67
2022/11/02 00:17:34;;;;;;;12.55;1.30;;;;;;;11.51;100.00;101264.06;5076153;28;20153;-67
2022/11/02 00:20:02;;;;;;;6.22;1.42;;;;;;;10.79;100.00;101233.59;5088315;28;20073;-68
2022/11/02 00:22:28;;;;;;;14.60;1.73;;;;;;;10.39;100.00;101253.75;5080962;28;20024;-67
2022/11/02 00:24:54;;;;;;;4.90;0.80;;;;;;;10.07;100.00;101242.44;5075284;28;20024;-67
2022/11/02 00:27:21;;;;;;;7.25;0.70;;;;;;;9.98;100.00;101235.19;5078487;28;20745;-67
2022/11/02 00:29:46;;;;;;;6.50;1.55;;;;;;;9.95;100.00;101195.69;5080429;28;20028;-68
2022/11/02 00:32:11;;;;;;;6.40;1.52;;;;;;;9.95;100.00;101174.66;5072963;28;20057;-67
2022/11/02 00:34:37;;;;;;;8.55;1.67;;;;;;;9.99;100.00;101176.50;5079269;28;20017;-66
2022/11/02 00:37:02;;;;;;;7.22;1.20;;;;;;;10.02;100.00;101176.56;5085997;28;20028;-67
2022/11/02 00:39:27;;;;;;;4.75;0.80;;;;;;;10.05;100.00;101189.81;5090092;28;20459;-67
2022/11/02 00:41:53;;;;;;;3.38;0.88;;;;;;;10.07;100.00;101187.22;5092114;28;20107;-66
2022/11/02 00:44:18;;;;;;;4.78;1.10;;;;;;;10.03;100.00;101191.50;5081293;28;20446;-66
2022/11/02 00:46:43;;;;;;;6.78;0.85;;;;;;;10.01;100.00;101184.41;5087996;28;20027;-67
2022/11/02 00:49:08;;;;;;;10.98;1.25;;;;;;;10.01;100.00;101172.19;5086547;28;20024;-67
2022/11/02 00:51:34;;;;;;;9.43;1.13;;;;;;;9.92;100.00;101187.72;5085546;28;20031;-67
2022/11/02 00:53:59;;;;;;;6.50;0.80;;;;;;;9.85;100.00;101184.06;5080069;28;20027;-66
2022/11/02 00:56:24;;;;;;;3.95;0.70;;;;;;;9.79;100.00;101192.69;5087557;28;20475;-67
2022/11/02 00:58:50;;;;;;;4.07;0.88;;;;;;;9.82;100.00;101185.69;5080309;28;20060;-67
2022/11/02 01:01:16;;;;;;;2.97;0.50;;;;;;;9.82;100.00;101180.44;5080668;28;20076;-67
2022/11/02 01:03:41;;;;;;;5.40;0.90;;;;;;;9.79;100.00;101179.53;5083166;28;20071;-65
2022/11/02 01:06:11;;;;;;;5.68;0.80;;;;;;;9.85;100.00;101183.13;5087996;28;20043;-66
2022/11/02 01:08:37;;;;;;;5.22;0.93;;;;;;;9.84;100.00;101184.00;5072632;28;20028;-67
2022/11/02 01:11:14;;;;;;;5.18;1.27;;;;;;;9.86;100.00;101179.66;5080090;28;20020;-66
2022/11/02 01:13:40;;;;;;;7.25;0.68;;;;;;;9.89;100.00;101182.38;5086810;28;20064;-66
2022/11/02 01:16:06;;;;;;;3.55;0.75;;;;;;;10.00;100.00;101190.50;5089427;28;20514;-67
2022/11/02 01:18:31;;;;;;;16.13;1.33;;;;;;;10.04;100.00;101180.13;5091305;28;20032;-66
2022/11/02 01:20:58;;;;;;;7.93;0.80;;;;;;;10.05;100.00;101184.53;5090264;28;20495;-67
2022/11/02 01:23:23;;;;;;;13.27;1.13;;;;;;;10.12;100.00;101181.19;5092254;28;20610;-67
2022/11/02 01:25:48;;;;;;;11.38;1.05;;;;;;;10.17;100.00;101199.69;5090168;28;20134;-67
2022/11/02 01:28:13;;;;;;;10.27;1.02;;;;;;;10.16;100.00;101208.47;5092562;28;20466;-67
2022/11/02 01:30:39;;;;;;;12.20;1.00;;;;;;;10.18;100.00;101197.97;5086975;28;20067;-67
2022/11/02 01:33:05;;;;;;;13.75;1.73;;;;;;;10.18;100.00;101184.84;5093467;28;20550;-67
2022/11/02 01:35:30;;;;;;;7.38;1.35;;;;;;;10.18;100.00;101195.34;5080936;28;20107;-67
2022/11/02 01:37:56;;;;;;;10.48;1.58;;;;;;;10.20;100.00;101183.13;5085637;28;20120;-67
2022/11/02 01:40:21;;;;;;;13.20;1.23;;;;;;;10.24;100.00;101190.22;5094297;28;20020;-66
2022/11/02 01:42:46;;;;;;;6.60;1.08;;;;;;;10.23;100.00;101185.84;5078200;28;20117;-66
2022/11/02 01:45:12;;;;;;;7.07;1.05;;;;;;;10.19;100.00;101176.97;5093825;28;20036;-68
2022/11/02 01:47:42;;;;;;;15.50;1.38;;;;;;;10.24;100.00;101163.91;5087857;28;20027;-67
2022/11/02 01:50:11;;;;;;;14.55;1.25;;;;;;;10.34;100.00;101160.66;5086321;28;20527;-66
2022/11/02 01:52:38;;;;;;;7.43;2.22;;;;;;;10.47;100.00;101164.47;5083314;28;20020;-66
2022/11/02 01:55:10;;;;;;;5.43;2.13;;;;;;;10.46;100.00;101160.97;5096010;28;20020;-66
2022/11/02 01:57:38;;;;;;;9.45;1.17;;;;;;;10.49;100.00;101164.53;5078349;28;20070;-67
2022/11/02 02:00:10;;;;;;;9.30;1.00;;;;;;;10.60;100.00;101173.53;5092823;28;20040;-69
2022/11/02 02:02:43;;;;;;;7.72;0.98;;;;;;;10.67;100.00;101188.59;5093957;28;20115;-67
2022/11/02 02:05:09;;;;;;;12.18;1.30;;;;;;;10.79;100.00;101180.97;5095550;28;20023;-67
2022/11/02 02:07:37;;;;;;;9.23;1.67;;;;;;;10.89;100.00;101191.69;5084428;28;20115;-66
2022/11/02 02:10:04;;;;;;;8.45;1.20;;;;;;;10.93;100.00;101198.78;5080051;28;20027;-67
2022/11/02 02:12:31;;;;;;;8.15;1.15;;;;;;;10.98;100.00;101197.16;5096036;28;20082;-68
2022/11/02 02:14:58;;;;;;;8.00;1.38;;;;;;;11.01;100.00;101191.06;5093218;28;20051;-67
2022/11/02 02:17:30;;;;;;;10.68;1.20;;;;;;;11.07;100.00;101185.91;5091895;28;20028;-67
2022/11/02 02:20:05;;;;;;;11.55;1.27;;;;;;;11.12;100.00;101174.63;5092039;28;20024;-67
2022/11/02 02:22:53;;;;;;;9.07;1.35;;;;;;;11.12;100.00;101179.88;5093662;28;20124;-67
2022/11/02 02:25:37;;;;;;;13.38;1.55;;;;;;;11.15;100.00;101189.59;5082653;28;20554;-68
2022/11/02 02:28:20;;;;;;;7.45;1.10;;;;;;;11.19;100.00;101193.16;5091083;28;20024;-67
2022/11/02 02:30:54;;;;;;;6.28;1.30;;;;;;;11.21;100.00;101188.84;5077927;28;20373;-66
2022/11/02 02:33:33;;;;;;;6.07;1.05;;;;;;;11.18;100.00;101188.75;5079313;28;20028;-67
2022/11/02 02:36:20;;;;;;;7.22;2.08;;;;;;;11.08;100.00;101192.94;5081772;28;20055;-67
2022/11/02 02:39:07;;;;;;;6.03;1.25;;;;;;;11.04;100.00;101193.75;5078824;28;20090;-67
2022/11/02 02:41:42;;;;;;;6.90;1.08;;;;;;;11.05;100.00;101183.25;5090650;28;20495;-68
2022/11/02 02:44:11;;;;;;;5.00;1.17;;;;;;;11.06;100.00;101200.81;5075238;28;20446;-68
2022/11/02 02:46:41;;;;;;;7.35;1.13;;;;;;;11.18;100.00;101189.66;5079057;28;20069;-66
2022/11/02 02:49:13;;;;;;;11.00;1.38;;;;;;;11.27;100.00;101183.66;5082811;28;20027;-67
2022/11/02 02:51:40;;;;;;;9.52;1.95;;;;;;;11.29;100.00;101184.59;5093951;28;20446;-66
2022/11/02 02:54:10;;;;;;;10.50;1.88;;;;;;;11.26;100.00;101177.53;5094410;28;20157;-66
2022/11/02 02:56:47;;;;;;;10.23;1.60;;;;;;;11.22;100.00;101188.84;5082422;28;20391;-67
2022/11/02 02:59:22;;;;;;;11.00;1.30;;;;;;;11.22;100.00;101187.97;5078083;28;20116;-67
2022/11/02 03:01:47;;;;;;;5.03;1.75;;;;;;;11.13;100.00;101191.31;5088204;28;20080;-65
2022/11/02 03:04:13;;;;;;;7.60;1.85;;;;;;;11.16;100.00;101191.34;5089655;28;20376;-68
2022/11/02 03:06:43;;;;;;;5.40;1.45;;;;;;;11.12;100.00;101189.53;5083975;28;20030;-67
2022/11/02 03:09:08;;;;;;;7.15;1.85;;;;;;;11.09;100.00;101192.09;5094290;28;20027;-68
2022/11/02 03:11:38;;;;;;;10.57;1.70;;;;;;;11.07;100.00;101204.34;5093095;28;20352;-67
2022/11/02 03:14:22;;;;;;;12.70;2.00;;;;;;;11.08;100.00;101206.13;5080685;28;20035;-68
2022/11/02 03:17:13;;;;;;;9.68;1.95;;;;;;;11.06;100.00;101203.47;5084417;28;20035;-67
2022/11/02 03:19:54;;;;;;;11.52;2.30;;;;;;;11.05;100.00;101199.03;5084584;28;20028;-67
2022/11/02 03:22:32;;;;;;;12.52;1.95;;;;;;;11.04;100.00;101215.72;5092622;28;20137;-68
2022/11/02 03:25:23;;;;;;;14.07;2.72;;;;;;;11.03;100.00;101218.28;5090752;28;20081;-68
2022/11/02 03:27:57;;;;;;;12.68;1.77;;;;;;;11.07;100.00;101234.22;5093569;28;20024;-68
2022/11/02 03:30:25;;;;;;;6.68;1.80;;;;;;;11.12;100.00;101221.13;5092931;28;20032;-67
2022/11/02 03:32:56;;;;;;;10.18;2.63;;;;;;;11.07;100.00;101228.03;5091905;28;20464;-67
2022/11/02 03:35:32;;;;;;;16.13;2.63;;;;;;;10.93;100.00;101236.56;5084150;28;20475;-67
2022/11/02 03:38:03;;;;;;;10.75;2.10;;;;;;;10.81;100.00;101241.53;5094603;28;20032;-68
2022/11/02 03:40:34;;;;;;;18.75;2.42;;;;;;;10.77;100.00;101240.59;5093746;28;20480;-67
2022/11/02 03:43:02;;;;;;;11.15;2.40;;;;;;;10.74;100.00;101252.78;5082775;28;20039;-67
2022/11/02 03:45:34;;;;;;;11.05;2.40;;;;;;;10.74;100.00;101261.59;5090678;28;20031;-68
2022/11/02 03:48:05;;;;;;;18.30;3.75;;;;;;;10.72;100.00;101268.56;5090172;28;20032;-68
2022/11/02 03:50:32;;;;;;;10.88;2.53;;;;;;;10.68;100.00;101256.19;5088083;28;20028;-67
2022/11/02 03:53:12;;;;;;;13.32;2.25;;;;;;;10.71;100.00;101264.13;5093372;28;20024;-67
2022/11/02 03:55:48;;;;;;;21.40;2.92;;;;;;;10.70;100.00;101267.66;5085763;28;20093;-67
2022/11/02 03:58:13;;;;;;;14.68;1.83;;;;;;;10.67;100.00;101267.56;5074520;28;20602;-67
2022/11/02 04:00:57;;;;;;;18.05;2.58;;;;;;;10.65;100.00;101271.91;5085003;28;20255;-68
2022/11/02 04:03:23;;;;;;;;;;;;;;;10.65;100.00;101266.66;5093114;28;20548;-68
2022/11/02 04:05:49;;;;;;;26.75;3.38;;;;;;;10.66;100.00;101278.94;5081341;28;20364;-67
2022/11/02 04:08:21;;;;;;;11.77;3.30;;;;;;;10.68;100.00;101287.75;5089443;28;20027;-67
2022/11/02 04:16:16;;;;;;;13.82;2.22;;;;;;;10.74;100.00;101345.81;5090856;28;20478;-68
2022/11/02 04:21:26;;;;;;;;;;;;;;;10.54;100.00;101332.19;5080364;28;20120;-66
2022/11/02 04:26:35;;;;;;;21.60;2.80;;;;;;;10.29;100.00;101341.16;5084165;28;20123;-66
2022/11/02 04:29:00;;;;;;;15.10;2.00;;;;;;;10.21;100.00;101354.09;5088486;28;20107;-66
2022/11/02 04:31:25;;;;;;;14.75;1.77;;;;;;;10.18;100.00;101363.66;5091992;28;20036;-67
2022/11/02 04:33:50;;;;;;;13.52;2.00;;;;;;;10.16;100.00;101368.88;5093322;28;20028;-66
2022/11/02 04:36:16;;;;;;;6.68;1.38;;;;;;;10.21;100.00;101369.88;5090259;28;20027;-66
2022/11/02 04:38:41;;;;;;;13.27;1.50;;;;;;;10.27;100.00;101380.56;5090944;28;20020;-67
2022/11/02 04:43:53;;;;;;;18.48;2.03;;;;;;;10.33;100.00;101385.09;5089582;28;20506;-67
2022/11/02 04:46:20;;;;;;;8.95;1.30;;;;;;;10.41;100.00;101394.09;5089891;28;20106;-65
2022/11/02 04:48:46;;;;;;;8.35;1.63;;;;;;;10.43;100.00;101389.78;5090832;28;20020;-65
2022/11/02 04:51:11;;;;;;;11.07;1.85;;;;;;;10.47;100.00;101390.75;5084337;28;20043;-66
2022/11/02 04:53:37;;;;;;;17.80;3.58;;;;;;;10.52;100.00;101396.16;5092077;28;20036;-67
2022/11/02 04:56:02;;;;;;;24.23;2.00;;;;;;;10.62;100.00;101399.06;5090399;28;20036;-66
2022/11/02 04:58:27;;;;;;;14.27;1.67;;;;;;;10.67;100.00;101404.41;5074561;28;20031;-67
2022/11/02 05:00:53;;;;;;;12.43;1.55;;;;;;;10.78;100.00;101400.31;5079421;28;20048;-67
2022/11/02 05:03:18;;;;;;;9.07;1.48;;;;;;;10.80;100.00;101418.78;5086796;28;20521;-66
2022/11/02 05:05:43;;;;;;;9.85;1.83;;;;;;;10.76;100.00;101423.06;5078982;28;20025;-66
2022/11/02 05:08:09;;;;;;;17.23;2.35;;;;;;;10.73;100.00;101440.53;5083394;28;20079;-67
2022/11/02 05:10:34;;;;;;;13.25;1.55;;;;;;;10.81;100.00;101441.59;5092358;28;20432;-66
2022/11/02 05:13:00;;;;;;;15.20;1.92;;;;;;;10.87;100.00;101447.03;5092114;28;20073;-66
2022/11/02 05:15:25;;;;;;;20.20;1.90;;;;;;;11.03;100.00;101465.84;5090664;28;20031;-69
2022/11/02 05:17:51;;;;;;;18.75;1.90;;;;;;;11.07;100.00;101452.81;5091964;28;20020;-67
2022/11/02 05:20:16;;;;;;;11.02;1.52;;;;;;;11.14;100.00;101456.47;5092058;28;20482;-68
2022/11/02 05:22:42;;;;;;;12.05;3.20;;;;;;;11.18;100.00;101474.13;5091537;28;20039;-67
2022/11/02 05:25:09;;;;;;;13.25;1.35;;;;;;;11.24;100.00;101474.25;5089192;28;20028;-67
2022/11/02 05:27:34;;;;;;;7.78;1.33;;;;;;;11.24;100.00;101470.75;5071409;28;20024;-68
2022/11/02 05:29:59;;;;;;;10.98;1.17;;;;;;;11.23;100.00;101483.06;5073851;28;20472;-66
2022/11/02 05:32:26;;;;;;;8.75;1.15;;;;;;;11.23;100.00;101490.03;5090979;28;20042;-67
2022/11/02 05:34:51;;;;;;;13.27;2.05;;;;;;;11.26;100.00;101495.41;5091911;28;20460;-68
2022/11/02 05:37:16;;;;;;;10.52;1.88;;;;;;;11.24;100.00;101487.44;5088747;28;20174;-68
2022/11/02 05:39:42;;;;;;;9.13;1.10;;;;;;;11.23;100.00;101496.22;5088389;28;20027;-68
2022/11/02 05:42:07;;;;;;;10.32;2.00;;;;;;;11.17;100.00;101497.81;5089441;28;20062;-66
2022/11/02 05:44:32;;;;;;;9.65;1.17;;;;;;;11.19;100.00;101511.91;5085615;28;20020;-67
2022/11/02 05:46:58;;;;;;;8.90;1.23;;;;;;;11.21;100.00;101520.75;5077893;28;20040;-67
2022/11/02 05:49:23;;;;;;;6.15;1.02;;;;;;;11.20;100.00;101519.81;5079980;28;20024;-68
2022/11/02 05:51:49;;;;;;;5.93;1.05;;;;;;;11.27;100.00;101531.41;5090904;28;20093;-67
2022/11/02 05:54:14;;;;;;;13.70;1.33;;;;;;;11.27;100.00;101536.69;5085226;28;20024;-69
2022/11/02 05:56:40;;;;;;;5.65;1.20;;;;;;;11.28;100.00;101538.47;5087030;28;20039;-68
2022/11/02 05:59:05;;;;;;;7.13;1.00;;;;;;;11.26;100.00;101545.47;5078302;28;20051;-69
2022/11/02 06:01:31;;;;;;;8.88;1.55;;;;;;;11.25;100.00;101557.72;5081701;28;20013;-67
2022/11/02 06:03:56;;;;;;;10.77;1.63;;;;;;;11.31;100.00;101556.97;5079026;28;20016;-68
2022/11/02 06:06:21;;;;;;;8.65;2.03;;;;;;;11.34;100.00;101558.81;5085267;28;20070;-67
2022/11/02 06:08:47;;;;;;;10.18;1.27;;;;;;;11.34;100.00;101583.44;5089877;28;20456;-67
2022/11/02 06:11:13;;;;;;;6.45;1.17;;;;;;;11.38;100.00;101572.13;5090018;28;20032;-68
2022/11/02 06:13:39;;;;;;;7.25;1.35;;;;;;;11.37;100.00;101575.59;5086796;28;20074;-67
2022/11/02 06:16:08;;;;;;;12.10;1.20;;;;;;;11.40;100.00;101588.84;5087691;28;20088;-67
2022/11/02 06:18:34;;;;;;;7.93;0.70;;;;;;;11.47;100.00;101592.53;5078855;28;20081;-68
2022/11/02 06:21:00;;;;;;;7.85;1.63;;;;;;;11.45;100.00;101595.13;5078205;28;20040;-68
2022/11/02 06:23:26;;;;;;;8.93;1.52;;;;;;;11.45;100.00;101600.41;5091840;28;20166;-69
2022/11/02 06:25:52;;;;;;;15.70;1.50;;;;;;;11.44;100.00;101605.63;5084611;28;20099;-68
2022/11/02 06:28:18;;;;;;;9.30;1.00;;;;;;;11.39;100.00;101615.16;5089756;28;20360;-68
2022/11/02 06:30:43;;;;;;;12.30;1.42;;;;;;;11.39;100.00;101616.03;5091033;28;20035;-68
2022/11/02 06:33:09;;;;;;;15.68;2.17;;;;;;;11.37;100.00;101624.78;5079009;28;20039;-68
2022/11/02 06:35:34;;;;;;;14.55;1.10;;;;;;;11.37;100.00;101617.75;5087141;28;20606;-67
2022/11/02 06:38:00;;;;;;;11.35;1.15;;;;;;;11.37;100.00;101632.69;5089252;28;20059;-68
2022/11/02 06:40:25;;;;;;;6.60;0.88;;;;;;;11.44;100.00;101639.88;5086691;28;20020;-67
2022/11/02 06:42:57;;;;;;;12.63;1.30;;;;;;;11.44;100.00;101651.31;5090612;28;20027;-68
2022/11/02 06:45:24;;;;;;;11.20;1.45;;;;;;;11.48;100.00;101647.91;5079984;28;20108;-69
2022/11/02 06:47:49;;;;;;;11.70;1.13;;;;;;;11.51;100.00;101656.75;5082103;28;20066;-69
2022/11/02 06:50:15;;;;;;;12.35;1.77;;;;;;;11.52;100.00;101669.09;5083199;28;20036;-69
2022/11/02 06:52:46;;;;;;;9.05;1.02;;;;;;;11.57;100.00;101668.34;5092137;28;20020;-68
2022/11/02 06:55:13;;;;;;;7.78;1.63;;;;;;;11.58;100.00;101685.03;5085266;28;20058;-68
2022/11/02 06:57:39;;;;;;;12.32;1.25;;;;;;;11.59;100.00;101687.72;5083605;28;20546;-67
2022/11/02 07:00:06;;;;;;;7.32;1.45;;;;;;;11.57;100.00;101686.81;5081974;28;20045;-68
2022/11/02 07:02:31;;;;;;;12.07;1.63;;;;;;;11.53;100.00;101694.56;5087031;28;20028;-68
2022/11/02 07:04:57;;;;;;;10.00;1.23;;;;;;;11.52;100.00;101700.72;5089631;28;20039;-69
2022/11/02 07:07:22;;;;;;;6.68;1.65;;;;;;;11.53;100.00;101707.75;5089567;28;20080;-68
2022/11/02 07:09:48;;;;;;;11.60;1.33;;;;;;;11.55;100.00;101700.78;5084110;28;20027;-66
2022/11/02 07:12:13;;;;;;;13.52;1.42;;;;;;;11.53;100.00;101713.94;5090904;28;20031;-67
2022/11/02 07:14:38;;;;;;;7.90;1.83;;;;;;;11.58;100.00;101714.03;5088075;28;20021;-68
2022/11/02 07:17:04;;;;;;;9.27;2.10;;;;;;;11.58;100.00;101716.69;5086722;28;20043;-67
2022/11/02 07:19:29;;;;;;;14.43;2.60;;;;;;;11.54;100.00;101726.22;5081642;28;20028;-68
2022/11/02 07:21:54;;;;;;;8.00;1.15;;;;;;;11.51;100.00;101735.81;5085596;28;20038;-68
2022/11/02 07:24:20;;;;;;;9.68;1.45;;;;;;;11.47;100.00;101735.72;5081039;28;20388;-68
2022/11/02 07:26:49;;;;;;;11.43;1.27;;;;;;;11.47;100.00;101737.47;5082527;28;20025;-67
2022/11/02 07:29:15;;;;;;;10.13;1.52;;;;;;;11.46;100.00;101738.31;5077279;28;20123;-67
2022/11/02 07:31:41;;;;;;;16.45;1.80;;;;;;;11.52;100.00;101749.03;5086818;28;20089;-66
2022/11/02 07:34:06;;;;;;;9.57;1.40;;;;;;;11.58;100.00;101748.31;5085112;28;20025;-67
2022/11/02 07:36:31;;;;;;;15.65;1.35;;;;;;;11.62;100.00;101755.44;5078262;28;20488;-66
2022/11/02 07:38:57;;;;;;;16.02;1.10;;;;;;;11.62;100.00;101753.72;5087639;28;20024;-66
2022/11/02 07:41:22;;;;;;;9.38;1.65;;;;;;;11.59;100.00;101771.19;5094379;28;20050;-67
2022/11/02 07:43:47;;;;;;;9.50;0.90;;;;;;;11.54;100.00;101763.13;5078801;28;20476;-66
2022/11/02 07:46:12;;;;;;;8.93;1.42;;;;;;;11.55;100.00;101769.31;5088071;28;20077;-67
2022/11/02 07:48:38;;;;;;;14.57;1.90;;;;;;;11.52;100.00;101777.16;5084928;28;20443;-67
2022/11/02 07:51:04;;;;;;;8.88;1.65;;;;;;;11.53;100.00;101778.91;5094389;28;20090;-68
2022/11/02 07:53:29;;;;;;;13.05;1.45;;;;;;;11.60;100.00;101776.50;5085058;28;20441;-67
2022/11/02 07:55:55;;;;;;;8.45;1.52;;;;;;;11.55;100.00;101775.47;5088493;28;20028;-67
2022/11/02 07:58:20;;;;;;;10.55;1.58;;;;;;;11.55;100.00;101774.59;5091333;28;20070;-65
2022/11/02 08:00:46;;;;;;;11.18;2.17;;;;;;;11.59;100.00;101787.00;5088001;28;20047;-69
2022/11/02 08:03:11;;;;;;;9.82;1.75;;;;;;;11.67;100.00;101788.09;5079216;28;20035;-67
2022/11/02 08:05:39;;;;;;;6.15;1.42;;;;;;;11.76;100.00;101796.28;5079560;28;20031;-68
2022/11/02 08:08:07;;;;;;;8.73;1.27;;;;;;;11.87;100.00;101804.47;5081161;28;20020;-68
2022/11/02 08:10:34;;;;;;;16.75;2.03;;;;;;;11.96;100.00;101801.19;5073738;28;20522;-68
2022/11/02 08:12:59;;;;;;;16.33;1.77;;;;;;;11.99;100.00;101803.91;5082021;28;20028;-68
2022/11/02 08:15:25;;;;;;;5.30;1.67;;;;;;;12.03;100.00;101810.19;5074546;28;20028;-68
2022/11/02 08:18:01;;;;;;;10.13;2.65;;;;;;;12.06;100.00;101810.25;5078992;28;20017;-67
2022/11/02 08:20:27;;;;;;;10.80;1.67;;;;;;;12.10;100.00;101807.75;5075509;28;20441;-67
2022/11/02 08:22:52;;;;;;;10.93;1.67;;;;;;;12.14;100.00;101814.00;5090108;28;20091;-68
2022/11/02 08:25:17;;;;;;;11.43;1.83;;;;;;;12.19;100.00;101812.34;5073529;28;20020;-66
2022/11/02 08:27:43;;;;;;;18.17;1.58;;;;;;;12.19;100.00;101811.47;5087518;28;20065;-67
2022/11/02 08:30:09;;;;;;;13.25;1.45;;;;;;;12.22;100.00;101814.19;5088195;28;20124;-67
2022/11/02 08:32:34;;;;;;;10.35;1.30;;;;;;;12.28;100.00;101819.63;5087141;28;20059;-68
2022/11/02 08:34:59;;;;;;;9.02;1.52;;;;;;;12.32;100.00;101824.13;5087774;28;20059;-68
2022/11/02 08:37:25;;;;;;;17.70;1.45;;;;;;;12.38;100.00;101829.53;5089728;28;20103;-67
2022/11/02 08:39:50;;;;;;;13.50;1.58;;;;;;;12.43;100.00;101822.63;5076634;28;20017;-67
2022/11/02 08:42:15;;;;;;;13.02;1.55;;;;;;;12.48;100.00;101831.56;5073014;28;20056;-66
2022/11/02 08:44:41;;;;;;;7.28;1.25;;;;;;;12.55;100.00;101826.44;5072910;28;20032;-67
2022/11/02 08:47:06;;;;;;;5.25;1.27;;;;;;;12.65;100.00;101836.34;5090332;28;20024;-67
2022/11/02 08:49:31;;;;;;;4.88;1.10;;;;;;;12.76;98.78;101834.84;5076959;28;20098;-67
2022/11/02 08:51:57;;;;;;;7.63;1.23;;;;;;;12.82;96.28;101845.56;5079727;28;20059;-68
2022/11/02 08:54:22;;;;;;;10.02;1.30;;;;;;;12.96;95.97;101842.38;5078504;28;20032;-68
2022/11/02 08:56:47;;;;;;;7.43;1.27;;;;;;;13.10;94.78;101848.88;5084883;28;20031;-67
2022/11/02 08:59:13;;;;;;;9.80;1.92;;;;;;;13.21;94.20;101845.53;5081334;28;20071;-67
2022/11/02 09:01:38;;;;;;;9.10;1.33;;;;;;;13.35;93.88;101845.84;5084965;28;20028;-68
2022/11/02 09:04:03;;;;;;;6.32;1.15;;;;;;;13.48;93.71;101850.56;5080034;28;20027;-68
2022/11/02 09:06:29;;;;;;;11.40;1.67;;;;;;;13.56;90.53;101858.66;5080301;28;20487;-67
2022/11/02 09:08:55;;;;;;;14.85;1.60;;;;;;;13.52;87.46;101857.69;5079514;28;20020;-66
2022/11/02 09:11:20;;;;;;;7.78;1.15;;;;;;;13.56;88.73;101858.66;5079413;28;20024;-66
2022/11/02 09:13:45;;;;;;;12.20;1.58;;;;;;;13.65;85.72;101858.84;5077880;28;20028;-67
2022/11/02 09:16:10;;;;;;;12.30;1.15;;;;;;;13.76;86.13;101859.94;5077921;28;20127;-67
2022/11/02 09:18:36;;;;;;;6.35;1.42;;;;;;;13.82;82.53;101873.31;5084111;28;20097;-68
2022/11/02 09:21:03;;;;;;;9.85;1.20;;;;;;;14.02;85.44;101875.44;5074112;28;20024;-67
2022/11/02 09:23:30;;;;;;;7.03;1.10;;;;;;;14.05;78.25;101870.19;5078381;28;20090;-68
2022/11/02 09:25:57;;;;;;;7.00;0.90;;;;;;;14.11;78.67;101874.72;5084501;28;21357;-67
2022/11/02 09:28:22;;;;;;;14.27;1.50;;;;;;;14.19;79.30;101877.50;5074610;28;20012;-67
2022/11/02 09:30:48;;;;;;;8.38;1.15;;;;;;;14.27;77.08;101881.16;5080589;28;20037;-67
2022/11/02 09:33:13;;;;;;;11.10;1.70;;;;;;;14.23;77.21;101879.34;5076882;28;20070;-67
2022/11/02 09:35:41;;;;;;;9.00;1.65;;;;;;;14.15;80.37;101888.03;5076268;28;20029;-67
2022/11/02 09:38:06;;;;;;;7.38;2.28;;;;;;;13.98;81.96;101898.31;5074966;28;20426;-67
2022/11/02 09:40:43;;;;;;;8.35;1.92;;;;;;;13.94;80.55;101892.91;5083908;28;20032;-67
2022/11/02 09:43:40;;;;;;;13.57;1.58;;;;;;;13.74;81.40;101896.06;5083598;28;20365;-66
2022/11/02 09:46:16;;;;;;;7.95;0.90;;;;;;;13.82;78.26;101890.91;5082900;28;20078;-67
2022/11/02 09:48:52;;;;;;;7.05;1.40;;;;;;;13.80;78.78;101904.13;5079163;28;20097;-68
2022/11/02 09:51:22;;;;;;;13.07;1.58;;;;;;;13.80;81.44;101911.19;5082251;28;20035;-68
2022/11/02 09:54:04;;;;;;;11.13;1.52;;;;;;;13.98;79.82;101900.06;5090043;28;20115;-67
2022/11/02 09:56:31;;;;;;;8.52;1.27;;;;;;;14.29;79.13;101898.00;5077194;28;20052;-67
2022/11/02 09:59:01;;;;;;;7.45;1.10;;;;;;;14.59;75.27;101905.56;5079096;28;20554;-67
2022/11/02 10:01:57;;;;;;;6.88;1.10;;;;;;;14.87;70.47;101907.81;5090343;28;20028;-68
2022/11/02 10:05:00;;;;;;;5.95;1.55;;;;;;;15.22;71.09;101902.16;5080823;28;20029;-67
2022/11/02 10:07:49;;;;;;;8.15;1.33;;;;;;;15.54;65.61;101897.28;5082163;28;20468;-66
2022/11/02 10:10:38;;;;;;;11.45;1.65;;;;;;;15.46;69.67;101902.53;5078816;28;20383;-68
2022/11/02 10:13:40;;;;;;;14.63;1.60;;;;;;;15.76;70.51;101906.44;5083740;28;20119;-68
2022/11/02 10:16:18;;;;;;;12.07;1.58;;;;;;;15.90;70.54;101895.09;5085012;28;20024;-68
2022/11/02 10:18:48;;;;;;;14.65;2.03;;;;;;;15.94;71.85;101911.09;5093264;28;21244;-69
2022/11/02 10:21:19;;;;;;;10.20;1.60;;;;;;;15.83;70.96;101910.97;5082922;28;20029;-69
2022/11/02 10:23:53;;;;;;;7.50;1.85;;;;;;;15.94;67.67;101920.81;5091629;28;20027;-68
2022/11/02 10:26:31;;;;;;;9.50;1.70;;;;;;;16.39;67.27;101930.16;5085459;28;20029;-70
2022/11/02 10:29:02;;;;;;;13.00;2.15;;;;;;;16.02;66.55;101924.47;5082953;28;20028;-68
2022/11/02 10:31:32;;;;;;;9.63;1.35;;;;;;;15.72;65.76;101928.50;5084231;28;20111;-69
2022/11/02 10:34:18;;;;;;;10.27;1.67;;;;;;;16.09;63.78;101925.41;5090512;28;20101;-69
2022/11/02 10:36:59;;;;;;;4.82;1.30;;;;;;;16.38;61.61;101925.72;5088164;28;20055;-68
2022/11/02 10:40:10;;;;;;;8.95;1.33;;;;;;;16.08;62.65;101944.88;5089048;28;20048;-70
2022/11/02 10:42:48;;;;;;;10.88;1.63;;;;;;;15.54;64.59;101953.00;5086050;28;20102;-69
2022/11/02 10:45:46;;;;;;;14.18;1.70;;;;;;;15.01;69.32;101940.75;5091714;28;20410;-69
2022/11/02 10:48:30;;;;;;;10.27;1.55;;;;;;;14.75;73.83;101949.16;5081718;28;20035;-68
2022/11/02 10:51:06;;;;;;;14.82;1.70;;;;;;;14.96;83.34;101945.06;5087908;28;20028;-69
2022/11/02 10:53:41;;;;;;;10.07;1.50;;;;;;;15.36;86.34;101937.72;5079917;28;20016;-71
2022/11/02 10:56:11;;;;;;;12.90;1.83;;;;;;;15.75;82.24;101931.19;5079448;28;20035;-69
2022/11/02 10:58:43;;;;;;;9.80;1.60;;;;;;;16.21;79.82;101940.59;5081065;28;20016;-70
2022/11/02 11:01:11;;;;;;;8.43;1.73;;;;;;;16.23;78.58;101947.69;5079890;28;20032;-70
2022/11/02 11:03:55;;;;;;;8.40;1.67;;;;;;;15.96;81.64;101943.84;5087074;28;20081;-69
2022/11/02 11:06:22;;;;;;;12.43;1.48;;;;;;;16.10;77.97;101937.81;5076305;28;20098;-70
2022/11/02 11:08:50;;;;;;;10.38;2.00;;;;;;;16.54;71.96;101933.84;5082191;28;20027;-70
2022/11/02 11:11:36;;;;;;;12.98;2.00;;;;;;;16.59;69.34;101933.00;5081339;28;20031;-71
2022/11/02 11:14:07;;;;;;;9.70;2.00;;;;;;;16.81;67.87;101927.88;5082851;28;20042;-70
2022/11/02 11:16:42;;;;;;;11.27;2.85;;;;;;;17.10;65.83;101933.44;5081176;28;20051;-70
2022/11/02 11:19:48;;;;;;;8.55;1.75;;;;;;;17.42;63.42;101907.94;5082262;28;20434;-70
2022/11/02 11:22:36;;;;;;;12.43;1.67;;;;;;;17.76;61.30;101922.28;4997364;28;20030;-70
2022/11/02 11:25:21;;;;;;;10.60;1.67;;;;;;;18.28;62.12;101932.22;5080790;28;20146;-70
2022/11/02 11:27:55;;;;;;;16.15;2.22;;;;;;;18.23;62.48;101933.09;5085983;28;20031;-70
2022/11/02 11:30:26;;;;;;;14.93;2.83;;;;;;;18.37;61.96;101936.69;5089489;28;20032;-70
2022/11/02 11:32:52;;;;;;;10.00;1.92;;;;;;;17.87;63.65;101947.16;5084432;28;20019;-71
2022/11/02 11:35:18;;;;;;;12.68;2.10;;;;;;;18.05;63.73;101945.47;5090694;28;20463;-70
2022/11/02 11:37:48;;;;;;;11.43;2.40;;;;;;;17.80;66.52;101945.38;5085718;28;20111;-69
2022/11/02 11:40:19;;;;;;;12.20;1.90;;;;;;;17.70;64.87;101948.84;5081371;28;20040;-69